Fruitland Park, Florida
Current Conditions -  °F | °C
As of 1:53 AM on Monday 24 Nov 2014 (Local Time) from KLEE Reporting Station
Scattered Clouds Scattered Clouds  
Wind Chill: 70°   Ceiling: Unl
Heat Index: 70°   Visibility: 9mi
Dew Point: 69°   Wind: 7mph
Humidity: 97%   Direction: 190°S
Pressure: 29.91"   Gusts: NA
Location:  28.86°N, 81.91°W
Report Text: KLEE 240653Z AUTO 19006KT 9SM SCT024 21/21 A2991 RMK AO2 SLP128 T02110206 $
Loading
Personal Weather Stations






























Interactive Weather Map New forecast layout! Learn more

10-Day Weather Forecast

Advertisements
Track Severe Weather on mobile